sensor_id;sensor_type;location;lat;lon;timestamp;P1;durP1;ratioP1;P2;durP2;ratioP2
9698;SDS011;10089;47.876;8.346;2023-05-10T00:00:59;0.40;;;0.40;;
9698;SDS011;10089;47.876;8.346;2023-05-10T00:03:25;0.98;;;0.40;;
9698;SDS011;10089;47.876;8.346;2023-05-10T00:05:50;0.40;;;0.40;;
9698;SDS011;10089;47.876;8.346;2023-05-10T00:08:16;0.30;;;0.30;;
9698;SDS011;10089;47.876;8.346;2023-05-10T00:10:42;0.30;;;0.30;;
9698;SDS011;10089;47.876;8.346;2023-05-10T00:13:07;0.98;;;0.75;;
9698;SDS011;10089;47.876;8.346;2023-05-10T00:15:34;0.40;;;0.40;;
9698;SDS011;10089;47.876;8.346;2023-05-10T00:18:00;0.40;;;0.40;;
9698;SDS011;10089;47.876;8.346;2023-05-10T00:20:26;0.30;;;0.30;;
9698;SDS011;10089;47.876;8.346;2023-05-10T00:22:51;0.60;;;0.40;;
9698;SDS011;10089;47.876;8.346;2023-05-10T00:25:17;0.38;;;0.38;;
9698;SDS011;10089;47.876;8.346;2023-05-10T00:27:43;0.30;;;0.30;;
9698;SDS011;10089;47.876;8.346;2023-05-10T00:30:08;0.63;;;0.40;;
9698;SDS011;10089;47.876;8.346;2023-05-10T00:32:34;0.47;;;0.40;;
9698;SDS011;10089;47.876;8.346;2023-05-10T00:35:00;0.65;;;0.50;;
9698;SDS011;10089;47.876;8.346;2023-05-10T00:37:26;0.32;;;0.32;;
9698;SDS011;10089;47.876;8.346;2023-05-10T00:39:51;0.38;;;0.38;;
9698;SDS011;10089;47.876;8.346;2023-05-10T00:42:17;0.40;;;0.40;;
9698;SDS011;10089;47.876;8.346;2023-05-10T00:44:42;0.40;;;0.40;;
9698;SDS011;10089;47.876;8.346;2023-05-10T00:47:08;0.63;;;0.57;;
9698;SDS011;10089;47.876;8.346;2023-05-10T00:49:35;1.40;;;0.40;;
9698;SDS011;10089;47.876;8.346;2023-05-10T00:52:01;0.50;;;0.50;;
9698;SDS011;10089;47.876;8.346;2023-05-10T00:54:28;0.70;;;0.50;;
9698;SDS011;10089;47.876;8.346;2023-05-10T00:56:53;2.08;;;0.50;;
9698;SDS011;10089;47.876;8.346;2023-05-10T00:59:19;0.20;;;0.20;;
9698;SDS011;10089;47.876;8.346;2023-05-10T01:01:46;0.50;;;0.50;;
9698;SDS011;10089;47.876;8.346;2023-05-10T01:04:13;0.52;;;0.35;;
9698;SDS011;10089;47.876;8.346;2023-05-10T01:06:42;0.40;;;0.40;;
9698;SDS011;10089;47.876;8.346;2023-05-10T01:09:08;0.47;;;0.47;;
9698;SDS011;10089;47.876;8.346;2023-05-10T01:11:35;2.22;;;0.50;;
9698;SDS011;10089;47.876;8.346;2023-05-10T01:14:03;0.30;;;0.30;;
9698;SDS011;10089;47.876;8.346;2023-05-10T01:16:29;0.38;;;0.38;;
9698;SDS011;10089;47.876;8.346;2023-05-10T01:18:59;1.73;;;0.55;;
9698;SDS011;10089;47.876;8.346;2023-05-10T01:41:33;3.03;;;0.50;;
9698;SDS011;10089;47.876;8.346;2023-05-10T01:46:41;0.95;;;0.60;;
9698;SDS011;10089;47.876;8.346;2023-05-10T01:49:29;1.08;;;0.50;;
9698;SDS011;10089;47.876;8.346;2023-05-10T01:51:58;0.40;;;0.40;;
9698;SDS011;10089;47.876;8.346;2023-05-10T01:54:27;0.73;;;0.57;;
9698;SDS011;10089;47.876;8.346;2023-05-10T01:57:01;3.25;;;0.70;;
9698;SDS011;10089;47.876;8.346;2023-05-10T01:59:31;0.60;;;0.60;;
9698;SDS011;10089;47.876;8.346;2023-05-10T02:02:06;0.50;;;0.50;;
9698;SDS011;10089;47.876;8.346;2023-05-10T02:04:37;2.40;;;0.50;;
9698;SDS011;10089;47.876;8.346;2023-05-10T02:07:04;0.60;;;0.60;;
9698;SDS011;10089;47.876;8.346;2023-05-10T02:09:32;0.75;;;0.50;;
9698;SDS011;10089;47.876;8.346;2023-05-10T02:11:59;0.82;;;0.60;;
9698;SDS011;10089;47.876;8.346;2023-05-10T02:14:29;0.93;;;0.60;;
9698;SDS011;10089;47.876;8.346;2023-05-10T02:16:59;2.20;;;0.70;;
9698;SDS011;10089;47.876;8.346;2023-05-10T02:19:25;0.50;;;0.50;;
9698;SDS011;10089;47.876;8.346;2023-05-10T02:21:53;1.33;;;0.65;;
9698;SDS011;10089;47.876;8.346;2023-05-10T02:24:20;0.85;;;0.65;;
9698;SDS011;10089;47.876;8.346;2023-05-10T02:26:47;1.70;;;0.60;;
9698;SDS011;10089;47.876;8.346;2023-05-10T02:29:16;2.28;;;0.70;;
9698;SDS011;10089;47.876;8.346;2023-05-10T02:31:43;0.57;;;0.57;;
9698;SDS011;10089;47.876;8.346;2023-05-10T02:34:10;0.93;;;0.60;;
9698;SDS011;10089;47.876;8.346;2023-05-10T02:36:37;1.55;;;0.70;;
9698;SDS011;10089;47.876;8.346;2023-05-10T02:39:04;1.33;;;0.68;;
9698;SDS011;10089;47.876;8.346;2023-05-10T02:41:34;1.67;;;0.68;;
9698;SDS011;10089;47.876;8.346;2023-05-10T02:44:01;0.93;;;0.70;;
9698;SDS011;10089;47.876;8.346;2023-05-10T02:46:28;0.63;;;0.63;;
9698;SDS011;10089;47.876;8.346;2023-05-10T02:48:55;0.40;;;0.40;;
9698;SDS011;10089;47.876;8.346;2023-05-10T02:51:20;1.92;;;0.60;;
9698;SDS011;10089;47.876;8.346;2023-05-10T02:53:53;0.77;;;0.60;;
9698;SDS011;10089;47.876;8.346;2023-05-10T02:56:56;0.80;;;0.70;;
9698;SDS011;10089;47.876;8.346;2023-05-10T02:59:16;0.95;;;0.60;;
9698;SDS011;10089;47.876;8.346;2023-05-10T03:01:42;0.60;;;0.60;;
9698;SDS011;10089;47.876;8.346;2023-05-10T03:04:07;1.40;;;0.70;;
9698;SDS011;10089;47.876;8.346;2023-05-10T03:06:33;0.55;;;0.55;;
9698;SDS011;10089;47.876;8.346;2023-05-10T03:08:59;0.93;;;0.60;;
9698;SDS011;10089;47.876;8.346;2023-05-10T03:19:55;0.50;;;0.50;;
9698;SDS011;10089;47.876;8.346;2023-05-10T03:22:40;0.65;;;0.50;;
9698;SDS011;10089;47.876;8.346;2023-05-10T03:25:10;1.13;;;0.60;;
9698;SDS011;10089;47.876;8.346;2023-05-10T03:27:37;1.65;;;0.60;;
9698;SDS011;10089;47.876;8.346;2023-05-10T03:30:05;0.60;;;0.60;;
9698;SDS011;10089;47.876;8.346;2023-05-10T03:32:35;1.58;;;0.80;;
9698;SDS011;10089;47.876;8.346;2023-05-10T03:35:05;0.60;;;0.60;;
9698;SDS011;10089;47.876;8.346;2023-05-10T03:37:35;0.50;;;0.50;;
9698;SDS011;10089;47.876;8.346;2023-05-10T03:40:01;0.52;;;0.52;;
9698;SDS011;10089;47.876;8.346;2023-05-10T03:42:27;0.40;;;0.40;;
9698;SDS011;10089;47.876;8.346;2023-05-10T03:44:53;0.70;;;0.70;;
9698;SDS011;10089;47.876;8.346;2023-05-10T03:47:19;1.45;;;0.70;;
9698;SDS011;10089;47.876;8.346;2023-05-10T03:49:45;0.73;;;0.52;;
9698;SDS011;10089;47.876;8.346;2023-05-10T03:52:10;1.15;;;0.70;;
9698;SDS011;10089;47.876;8.346;2023-05-10T03:54:36;0.60;;;0.50;;
9698;SDS011;10089;47.876;8.346;2023-05-10T03:57:02;1.85;;;0.80;;
9698;SDS011;10089;47.876;8.346;2023-05-10T03:59:28;1.33;;;0.75;;
9698;SDS011;10089;47.876;8.346;2023-05-10T04:01:54;0.82;;;0.82;;
9698;SDS011;10089;47.876;8.346;2023-05-10T04:04:20;4.63;;;1.30;;
9698;SDS011;10089;47.876;8.346;2023-05-10T04:06:47;1.00;;;1.00;;
9698;SDS011;10089;47.876;8.346;2023-05-10T04:09:12;1.48;;;0.93;;
9698;SDS011;10089;47.876;8.346;2023-05-10T04:11:39;2.55;;;0.88;;
9698;SDS011;10089;47.876;8.346;2023-05-10T04:14:04;0.93;;;0.85;;
9698;SDS011;10089;47.876;8.346;2023-05-10T04:16:30;1.02;;;0.90;;
9698;SDS011;10089;47.876;8.346;2023-05-10T04:18:56;1.80;;;0.82;;
9698;SDS011;10089;47.876;8.346;2023-05-10T04:21:22;0.85;;;0.85;;
9698;SDS011;10089;47.876;8.346;2023-05-10T04:23:48;0.80;;;0.80;;
9698;SDS011;10089;47.876;8.346;2023-05-10T04:26:13;0.90;;;0.90;;
9698;SDS011;10089;47.876;8.346;2023-05-10T04:28:39;1.17;;;1.08;;
9698;SDS011;10089;47.876;8.346;2023-05-10T04:31:07;1.50;;;0.80;;
9698;SDS011;10089;47.876;8.346;2023-05-10T04:33:34;1.08;;;0.80;;
9698;SDS011;10089;47.876;8.346;2023-05-10T04:36:00;0.95;;;0.82;;
9698;SDS011;10089;47.876;8.346;2023-05-10T04:38:26;1.73;;;1.13;;
9698;SDS011;10089;47.876;8.346;2023-05-10T04:40:52;7.07;;;1.30;;
9698;SDS011;10089;47.876;8.346;2023-05-10T04:43:18;1.05;;;0.88;;
9698;SDS011;10089;47.876;8.346;2023-05-10T04:45:44;1.00;;;0.90;;
9698;SDS011;10089;47.876;8.346;2023-05-10T04:48:10;2.22;;;0.80;;
9698;SDS011;10089;47.876;8.346;2023-05-10T04:50:36;1.83;;;1.20;;
9698;SDS011;10089;47.876;8.346;2023-05-10T04:53:02;1.45;;;1.10;;
9698;SDS011;10089;47.876;8.346;2023-05-10T04:55:27;1.55;;;0.93;;
9698;SDS011;10089;47.876;8.346;2023-05-10T04:57:53;1.65;;;1.02;;
9698;SDS011;10089;47.876;8.346;2023-05-10T05:00:21;0.80;;;0.80;;
9698;SDS011;10089;47.876;8.346;2023-05-10T05:02:48;3.17;;;0.85;;
9698;SDS011;10089;47.876;8.346;2023-05-10T05:05:13;0.70;;;0.70;;
9698;SDS011;10089;47.876;8.346;2023-05-10T05:07:39;1.15;;;1.00;;
9698;SDS011;10089;47.876;8.346;2023-05-10T05:10:06;1.08;;;1.00;;
9698;SDS011;10089;47.876;8.346;2023-05-10T05:12:32;3.17;;;1.20;;
9698;SDS011;10089;47.876;8.346;2023-05-10T05:14:58;2.47;;;1.38;;
9698;SDS011;10089;47.876;8.346;2023-05-10T05:17:24;1.30;;;1.20;;
9698;SDS011;10089;47.876;8.346;2023-05-10T05:19:50;3.25;;;1.00;;
9698;SDS011;10089;47.876;8.346;2023-05-10T05:22:16;2.92;;;1.40;;
9698;SDS011;10089;47.876;8.346;2023-05-10T05:24:42;1.27;;;1.02;;
9698;SDS011;10089;47.876;8.346;2023-05-10T05:27:07;1.27;;;1.17;;
9698;SDS011;10089;47.876;8.346;2023-05-10T05:29:33;4.13;;;1.00;;
9698;SDS011;10089;47.876;8.346;2023-05-10T05:31:59;1.63;;;1.30;;
9698;SDS011;10089;47.876;8.346;2023-05-10T05:34:25;1.30;;;1.10;;
9698;SDS011;10089;47.876;8.346;2023-05-10T05:36:51;2.80;;;1.10;;
9698;SDS011;10089;47.876;8.346;2023-05-10T05:39:16;1.10;;;1.00;;
9698;SDS011;10089;47.876;8.346;2023-05-10T05:41:42;0.93;;;0.90;;
9698;SDS011;10089;47.876;8.346;2023-05-10T05:44:08;1.10;;;0.95;;
9698;SDS011;10089;47.876;8.346;2023-05-10T05:46:35;2.60;;;1.00;;
9698;SDS011;10089;47.876;8.346;2023-05-10T05:49:00;1.83;;;1.48;;
9698;SDS011;10089;47.876;8.346;2023-05-10T05:51:26;3.20;;;1.23;;
9698;SDS011;10089;47.876;8.346;2023-05-10T05:53:52;3.05;;;1.33;;
9698;SDS011;10089;47.876;8.346;2023-05-10T05:56:18;1.52;;;1.30;;
9698;SDS011;10089;47.876;8.346;2023-05-10T05:58:49;2.65;;;1.00;;
9698;SDS011;10089;47.876;8.346;2023-05-10T06:01:15;1.10;;;1.00;;
9698;SDS011;10089;47.876;8.346;2023-05-10T06:03:41;2.35;;;1.02;;
9698;SDS011;10089;47.876;8.346;2023-05-10T06:06:07;1.42;;;0.90;;
9698;SDS011;10089;47.876;8.346;2023-05-10T06:08:33;3.10;;;0.80;;
9698;SDS011;10089;47.876;8.346;2023-05-10T06:10:59;0.93;;;0.93;;
9698;SDS011;10089;47.876;8.346;2023-05-10T06:13:25;0.77;;;0.77;;
9698;SDS011;10089;47.876;8.346;2023-05-10T06:15:57;1.40;;;1.10;;
9698;SDS011;10089;47.876;8.346;2023-05-10T06:18:23;1.05;;;0.82;;
9698;SDS011;10089;47.876;8.346;2023-05-10T06:20:50;1.52;;;1.10;;
9698;SDS011;10089;47.876;8.346;2023-05-10T06:23:16;3.05;;;0.90;;
9698;SDS011;10089;47.876;8.346;2023-05-10T06:25:42;0.93;;;0.93;;
9698;SDS011;10089;47.876;8.346;2023-05-10T06:28:08;2.15;;;1.00;;
9698;SDS011;10089;47.876;8.346;2023-05-10T06:30:35;1.17;;;1.00;;
9698;SDS011;10089;47.876;8.346;2023-05-10T06:33:01;1.20;;;1.10;;
9698;SDS011;10089;47.876;8.346;2023-05-10T06:35:28;1.08;;;0.98;;
9698;SDS011;10089;47.876;8.346;2023-05-10T06:37:54;0.88;;;0.88;;
9698;SDS011;10089;47.876;8.346;2023-05-10T06:40:20;2.60;;;0.93;;
9698;SDS011;10089;47.876;8.346;2023-05-10T06:42:46;1.25;;;1.15;;
9698;SDS011;10089;47.876;8.346;2023-05-10T06:45:13;2.83;;;0.93;;
9698;SDS011;10089;47.876;8.346;2023-05-10T06:47:39;3.17;;;1.00;;
9698;SDS011;10089;47.876;8.346;2023-05-10T06:50:06;1.75;;;1.20;;
9698;SDS011;10089;47.876;8.346;2023-05-10T06:52:36;5.60;;;1.20;;
9698;SDS011;10089;47.876;8.346;2023-05-10T06:55:02;1.20;;;1.10;;
9698;SDS011;10089;47.876;8.346;2023-05-10T06:57:29;1.42;;;0.95;;
9698;SDS011;10089;47.876;8.346;2023-05-10T06:59:55;1.00;;;1.00;;
9698;SDS011;10089;47.876;8.346;2023-05-10T07:02:21;1.23;;;1.10;;
9698;SDS011;10089;47.876;8.346;2023-05-10T07:04:47;0.90;;;0.80;;
9698;SDS011;10089;47.876;8.346;2023-05-10T07:07:14;1.38;;;0.95;;
9698;SDS011;10089;47.876;8.346;2023-05-10T07:09:39;0.85;;;0.70;;
9698;SDS011;10089;47.876;8.346;2023-05-10T07:12:05;1.00;;;0.90;;
9698;SDS011;10089;47.876;8.346;2023-05-10T07:14:31;1.10;;;1.00;;
9698;SDS011;10089;47.876;8.346;2023-05-10T07:16:57;0.73;;;0.70;;
9698;SDS011;10089;47.876;8.346;2023-05-10T07:19:23;2.30;;;1.05;;
9698;SDS011;10089;47.876;8.346;2023-05-10T07:21:48;1.52;;;0.90;;
9698;SDS011;10089;47.876;8.346;2023-05-10T07:24:15;2.03;;;0.70;;
9698;SDS011;10089;47.876;8.346;2023-05-10T07:26:41;0.90;;;0.90;;
9698;SDS011;10089;47.876;8.346;2023-05-10T07:29:07;0.95;;;0.80;;
9698;SDS011;10089;47.876;8.346;2023-05-10T07:31:32;1.67;;;1.40;;
9698;SDS011;10089;47.876;8.346;2023-05-10T07:33:58;0.63;;;0.63;;
9698;SDS011;10089;47.876;8.346;2023-05-10T07:36:24;0.70;;;0.70;;
9698;SDS011;10089;47.876;8.346;2023-05-10T07:38:49;0.63;;;0.63;;
9698;SDS011;10089;47.876;8.346;2023-05-10T07:41:34;2.00;;;0.80;;
9698;SDS011;10089;47.876;8.346;2023-05-10T07:44:12;2.05;;;0.82;;
9698;SDS011;10089;47.876;8.346;2023-05-10T07:46:38;0.70;;;0.70;;
9698;SDS011;10089;47.876;8.346;2023-05-10T07:49:03;0.82;;;0.73;;
9698;SDS011;10089;47.876;8.346;2023-05-10T07:51:29;0.70;;;0.70;;
9698;SDS011;10089;47.876;8.346;2023-05-10T07:53:55;3.13;;;0.80;;
9698;SDS011;10089;47.876;8.346;2023-05-10T07:58:51;1.88;;;0.93;;
9698;SDS011;10089;47.876;8.346;2023-05-10T08:01:17;0.63;;;0.60;;
9698;SDS011;10089;47.876;8.346;2023-05-10T08:03:43;0.68;;;0.68;;
9698;SDS011;10089;47.876;8.346;2023-05-10T08:06:09;1.10;;;0.73;;
9698;SDS011;10089;47.876;8.346;2023-05-10T08:08:35;2.85;;;0.77;;
9698;SDS011;10089;47.876;8.346;2023-05-10T08:11:01;1.30;;;0.80;;
9698;SDS011;10089;47.876;8.346;2023-05-10T08:13:26;1.02;;;0.82;;
9698;SDS011;10089;47.876;8.346;2023-05-10T08:15:52;1.10;;;0.60;;
9698;SDS011;10089;47.876;8.346;2023-05-10T08:18:18;1.13;;;0.70;;
9698;SDS011;10089;47.876;8.346;2023-05-10T08:20:44;1.60;;;0.60;;
9698;SDS011;10089;47.876;8.346;2023-05-10T08:23:11;0.85;;;0.68;;
9698;SDS011;10089;47.876;8.346;2023-05-10T08:25:38;1.15;;;1.00;;
9698;SDS011;10089;47.876;8.346;2023-05-10T08:28:03;1.83;;;1.27;;
9698;SDS011;10089;47.876;8.346;2023-05-10T08:30:29;2.50;;;1.10;;
9698;SDS011;10089;47.876;8.346;2023-05-10T08:32:55;1.90;;;0.85;;
9698;SDS011;10089;47.876;8.346;2023-05-10T08:35:21;2.40;;;0.90;;
9698;SDS011;10089;47.876;8.346;2023-05-10T08:37:46;1.63;;;0.80;;
9698;SDS011;10089;47.876;8.346;2023-05-10T08:40:12;1.92;;;0.90;;
9698;SDS011;10089;47.876;8.346;2023-05-10T08:42:40;1.75;;;0.70;;
9698;SDS011;10089;47.876;8.346;2023-05-10T08:45:08;1.15;;;0.63;;
9698;SDS011;10089;47.876;8.346;2023-05-10T08:47:35;2.88;;;1.02;;
9698;SDS011;10089;47.876;8.346;2023-05-10T08:50:03;2.05;;;0.80;;
9698;SDS011;10089;47.876;8.346;2023-05-10T08:52:29;1.80;;;0.77;;
9698;SDS011;10089;47.876;8.346;2023-05-10T08:54:57;1.15;;;0.88;;
9698;SDS011;10089;47.876;8.346;2023-05-10T08:57:23;1.02;;;0.93;;
9698;SDS011;10089;47.876;8.346;2023-05-10T08:59:49;0.70;;;0.70;;
9698;SDS011;10089;47.876;8.346;2023-05-10T09:02:15;1.55;;;1.10;;
9698;SDS011;10089;47.876;8.346;2023-05-10T09:04:43;0.77;;;0.75;;
9698;SDS011;10089;47.876;8.346;2023-05-10T09:07:09;2.08;;;0.88;;
9698;SDS011;10089;47.876;8.346;2023-05-10T09:09:36;1.42;;;0.90;;
9698;SDS011;10089;47.876;8.346;2023-05-10T09:12:02;2.92;;;0.80;;
9698;SDS011;10089;47.876;8.346;2023-05-10T09:14:28;2.25;;;0.90;;
9698;SDS011;10089;47.876;8.346;2023-05-10T09:16:55;1.35;;;0.90;;
9698;SDS011;10089;47.876;8.346;2023-05-10T09:19:21;3.08;;;2.10;;
9698;SDS011;10089;47.876;8.346;2023-05-10T09:21:47;4.13;;;1.55;;
9698;SDS011;10089;47.876;8.346;2023-05-10T09:24:14;2.17;;;1.20;;
9698;SDS011;10089;47.876;8.346;2023-05-10T09:26:45;1.20;;;0.90;;
9698;SDS011;10089;47.876;8.346;2023-05-10T09:29:15;2.30;;;1.20;;
9698;SDS011;10089;47.876;8.346;2023-05-10T09:34:19;5.97;;;1.13;;
9698;SDS011;10089;47.876;8.346;2023-05-10T09:36:51;2.08;;;1.05;;
9698;SDS011;10089;47.876;8.346;2023-05-10T09:39:29;1.05;;;1.00;;
9698;SDS011;10089;47.876;8.346;2023-05-10T09:41:56;4.65;;;1.00;;
9698;SDS011;10089;47.876;8.346;2023-05-10T09:44:23;6.53;;;0.90;;
9698;SDS011;10089;47.876;8.346;2023-05-10T09:46:51;3.25;;;1.33;;
9698;SDS011;10089;47.876;8.346;2023-05-10T09:49:20;2.13;;;1.10;;
9698;SDS011;10089;47.876;8.346;2023-05-10T09:51:46;1.73;;;1.20;;
9698;SDS011;10089;47.876;8.346;2023-05-10T09:54:16;0.90;;;0.88;;
9698;SDS011;10089;47.876;8.346;2023-05-10T09:56:42;5.47;;;1.27;;
9698;SDS011;10089;47.876;8.346;2023-05-10T09:59:09;5.05;;;1.27;;
9698;SDS011;10089;47.876;8.346;2023-05-10T10:01:36;2.67;;;1.10;;
9698;SDS011;10089;47.876;8.346;2023-05-10T10:04:03;1.40;;;1.00;;
9698;SDS011;10089;47.876;8.346;2023-05-10T10:06:41;1.73;;;1.08;;
9698;SDS011;10089;47.876;8.346;2023-05-10T10:09:07;1.75;;;0.90;;
9698;SDS011;10089;47.876;8.346;2023-05-10T10:11:37;6.05;;;1.33;;
9698;SDS011;10089;47.876;8.346;2023-05-10T10:14:03;4.07;;;1.02;;
9698;SDS011;10089;47.876;8.346;2023-05-10T10:16:30;1.33;;;0.95;;
9698;SDS011;10089;47.876;8.346;2023-05-10T10:18:57;2.63;;;1.10;;
9698;SDS011;10089;47.876;8.346;2023-05-10T10:21:23;3.63;;;1.13;;
9698;SDS011;10089;47.876;8.346;2023-05-10T10:23:49;3.47;;;1.25;;
9698;SDS011;10089;47.876;8.346;2023-05-10T10:26:15;1.58;;;1.00;;
9698;SDS011;10089;47.876;8.346;2023-05-10T10:28:56;2.60;;;1.10;;
9698;SDS011;10089;47.876;8.346;2023-05-10T10:31:44;2.78;;;0.88;;
9698;SDS011;10089;47.876;8.346;2023-05-10T10:34:27;1.65;;;0.85;;
9698;SDS011;10089;47.876;8.346;2023-05-10T10:36:54;1.98;;;0.95;;
9698;SDS011;10089;47.876;8.346;2023-05-10T10:39:21;2.22;;;1.05;;
9698;SDS011;10089;47.876;8.346;2023-05-10T10:57:49;2.85;;;0.90;;
9698;SDS011;10089;47.876;8.346;2023-05-10T11:05:43;3.78;;;1.20;;
9698;SDS011;10089;47.876;8.346;2023-05-10T11:08:29;2.85;;;1.40;;
9698;SDS011;10089;47.876;8.346;2023-05-10T11:13:37;3.13;;;1.65;;
9698;SDS011;10089;47.876;8.346;2023-05-10T11:16:21;3.47;;;1.30;;
9698;SDS011;10089;47.876;8.346;2023-05-10T11:18:52;0.68;;;0.68;;
9698;SDS011;10089;47.876;8.346;2023-05-10T11:21:24;2.45;;;1.10;;
9698;SDS011;10089;47.876;8.346;2023-05-10T11:23:57;4.60;;;1.00;;
9698;SDS011;10089;47.876;8.346;2023-05-10T11:26:25;2.20;;;1.10;;
9698;SDS011;10089;47.876;8.346;2023-05-10T11:28:55;1.95;;;0.98;;
9698;SDS011;10089;47.876;8.346;2023-05-10T11:31:21;2.33;;;0.90;;
9698;SDS011;10089;47.876;8.346;2023-05-10T11:33:51;2.38;;;0.88;;
9698;SDS011;10089;47.876;8.346;2023-05-10T11:36:19;2.28;;;1.00;;
9698;SDS011;10089;47.876;8.346;2023-05-10T11:38:57;1.20;;;0.90;;
9698;SDS011;10089;47.876;8.346;2023-05-10T11:41:23;1.10;;;0.98;;
9698;SDS011;10089;47.876;8.346;2023-05-10T11:43:50;2.28;;;1.10;;
9698;SDS011;10089;47.876;8.346;2023-05-10T11:46:18;1.98;;;0.68;;
9698;SDS011;10089;47.876;8.346;2023-05-10T11:48:49;3.70;;;1.15;;
9698;SDS011;10089;47.876;8.346;2023-05-10T11:51:23;1.23;;;0.68;;
9698;SDS011;10089;47.876;8.346;2023-05-10T11:53:50;0.95;;;0.80;;
9698;SDS011;10089;47.876;8.346;2023-05-10T11:56:19;0.65;;;0.65;;
9698;SDS011;10089;47.876;8.346;2023-05-10T11:58:47;2.17;;;0.93;;
9698;SDS011;10089;47.876;8.346;2023-05-10T12:01:21;1.95;;;1.02;;
9698;SDS011;10089;47.876;8.346;2023-05-10T12:03:48;1.15;;;0.80;;
9698;SDS011;10089;47.876;8.346;2023-05-10T12:06:15;1.67;;;1.00;;
9698;SDS011;10089;47.876;8.346;2023-05-10T12:08:45;0.88;;;0.80;;
9698;SDS011;10089;47.876;8.346;2023-05-10T12:11:12;2.28;;;0.88;;
9698;SDS011;10089;47.876;8.346;2023-05-10T12:13:40;1.08;;;0.88;;
9698;SDS011;10089;47.876;8.346;2023-05-10T12:16:14;1.05;;;0.90;;
9698;SDS011;10089;47.876;8.346;2023-05-10T12:18:41;4.45;;;1.02;;
9698;SDS011;10089;47.876;8.346;2023-05-10T12:21:10;1.77;;;1.08;;
9698;SDS011;10089;47.876;8.346;2023-05-10T12:23:37;1.67;;;1.00;;
9698;SDS011;10089;47.876;8.346;2023-05-10T12:26:04;2.70;;;1.35;;
9698;SDS011;10089;47.876;8.346;2023-05-10T12:28:30;2.72;;;0.90;;
9698;SDS011;10089;47.876;8.346;2023-05-10T12:30:57;4.13;;;1.20;;
9698;SDS011;10089;47.876;8.346;2023-05-10T12:33:24;3.97;;;0.90;;
9698;SDS011;10089;47.876;8.346;2023-05-10T12:35:54;1.88;;;0.80;;
9698;SDS011;10089;47.876;8.346;2023-05-10T12:40:57;7.15;;;1.23;;
9698;SDS011;10089;47.876;8.346;2023-05-10T12:43:42;2.97;;;1.83;;
9698;SDS011;10089;47.876;8.346;2023-05-10T12:46:08;6.40;;;1.17;;
9698;SDS011;10089;47.876;8.346;2023-05-10T12:48:35;1.83;;;0.85;;
9698;SDS011;10089;47.876;8.346;2023-05-10T12:51:02;1.40;;;0.95;;
9698;SDS011;10089;47.876;8.346;2023-05-10T12:53:29;3.20;;;1.13;;
9698;SDS011;10089;47.876;8.346;2023-05-10T12:55:55;3.80;;;1.10;;
9698;SDS011;10089;47.876;8.346;2023-05-10T12:58:24;4.72;;;0.80;;
9698;SDS011;10089;47.876;8.346;2023-05-10T13:00:50;3.75;;;1.00;;
9698;SDS011;10089;47.876;8.346;2023-05-10T13:03:16;2.33;;;0.73;;
9698;SDS011;10089;47.876;8.346;2023-05-10T13:05:42;2.75;;;1.15;;
9698;SDS011;10089;47.876;8.346;2023-05-10T13:08:08;2.50;;;1.00;;
9698;SDS011;10089;47.876;8.346;2023-05-10T13:10:34;1.55;;;0.90;;
9698;SDS011;10089;47.876;8.346;2023-05-10T13:13:00;1.05;;;0.70;;
9698;SDS011;10089;47.876;8.346;2023-05-10T13:15:25;4.40;;;1.00;;
9698;SDS011;10089;47.876;8.346;2023-05-10T13:17:52;2.03;;;0.85;;
9698;SDS011;10089;47.876;8.346;2023-05-10T13:20:18;1.23;;;0.80;;
9698;SDS011;10089;47.876;8.346;2023-05-10T13:22:44;3.55;;;0.73;;
9698;SDS011;10089;47.876;8.346;2023-05-10T13:25:10;0.95;;;0.63;;
9698;SDS011;10089;47.876;8.346;2023-05-10T13:27:37;1.10;;;0.70;;
9698;SDS011;10089;47.876;8.346;2023-05-10T13:30:07;0.80;;;0.80;;
9698;SDS011;10089;47.876;8.346;2023-05-10T13:32:33;2.13;;;0.80;;
9698;SDS011;10089;47.876;8.346;2023-05-10T13:35:00;0.75;;;0.65;;
9698;SDS011;10089;47.876;8.346;2023-05-10T13:37:26;1.38;;;1.00;;
9698;SDS011;10089;47.876;8.346;2023-05-10T13:39:51;3.95;;;0.85;;
9698;SDS011;10089;47.876;8.346;2023-05-10T13:42:17;6.00;;;1.15;;
9698;SDS011;10089;47.876;8.346;2023-05-10T13:44:43;0.90;;;0.70;;
9698;SDS011;10089;47.876;8.346;2023-05-10T13:47:09;2.67;;;0.75;;
9698;SDS011;10089;47.876;8.346;2023-05-10T13:49:35;3.38;;;0.68;;
9698;SDS011;10089;47.876;8.346;2023-05-10T13:52:01;1.83;;;0.57;;
9698;SDS011;10089;47.876;8.346;2023-05-10T13:54:34;0.75;;;0.52;;
9698;SDS011;10089;47.876;8.346;2023-05-10T13:57:03;0.63;;;0.50;;
9698;SDS011;10089;47.876;8.346;2023-05-10T13:59:29;0.80;;;0.68;;
9698;SDS011;10089;47.876;8.346;2023-05-10T14:01:58;3.10;;;0.70;;
9698;SDS011;10089;47.876;8.346;2023-05-10T14:04:25;2.38;;;0.80;;
9698;SDS011;10089;47.876;8.346;2023-05-10T14:06:50;0.82;;;0.70;;
9698;SDS011;10089;47.876;8.346;2023-05-10T14:09:17;2.17;;;0.85;;
9698;SDS011;10089;47.876;8.346;2023-05-10T14:11:43;0.82;;;0.80;;
9698;SDS011;10089;47.876;8.346;2023-05-10T14:14:10;1.55;;;0.70;;
9698;SDS011;10089;47.876;8.346;2023-05-10T14:16:36;0.95;;;0.85;;
9698;SDS011;10089;47.876;8.346;2023-05-10T14:19:02;4.07;;;0.80;;
9698;SDS011;10089;47.876;8.346;2023-05-10T14:21:28;0.90;;;0.75;;
9698;SDS011;10089;47.876;8.346;2023-05-10T14:23:55;1.42;;;0.90;;
9698;SDS011;10089;47.876;8.346;2023-05-10T14:26:21;1.75;;;0.70;;
9698;SDS011;10089;47.876;8.346;2023-05-10T14:28:47;5.05;;;1.00;;
9698;SDS011;10089;47.876;8.346;2023-05-10T14:31:13;0.93;;;0.60;;
9698;SDS011;10089;47.876;8.346;2023-05-10T14:33:39;1.30;;;0.65;;
9698;SDS011;10089;47.876;8.346;2023-05-10T14:36:05;1.00;;;0.90;;
9698;SDS011;10089;47.876;8.346;2023-05-10T14:38:31;1.38;;;0.82;;
9698;SDS011;10089;47.876;8.346;2023-05-10T14:40:57;1.10;;;0.82;;
9698;SDS011;10089;47.876;8.346;2023-05-10T14:43:23;2.10;;;0.60;;
9698;SDS011;10089;47.876;8.346;2023-05-10T14:45:49;2.65;;;0.88;;
9698;SDS011;10089;47.876;8.346;2023-05-10T14:48:14;1.25;;;0.77;;
9698;SDS011;10089;47.876;8.346;2023-05-10T14:50:42;0.98;;;0.60;;
9698;SDS011;10089;47.876;8.346;2023-05-10T14:53:09;1.60;;;0.80;;
9698;SDS011;10089;47.876;8.346;2023-05-10T14:55:34;1.48;;;0.60;;
9698;SDS011;10089;47.876;8.346;2023-05-10T14:58:01;4.63;;;0.90;;
9698;SDS011;10089;47.876;8.346;2023-05-10T15:00:28;1.10;;;0.63;;
9698;SDS011;10089;47.876;8.346;2023-05-10T15:02:54;0.70;;;0.68;;
9698;SDS011;10089;47.876;8.346;2023-05-10T15:05:20;2.55;;;0.50;;
9698;SDS011;10089;47.876;8.346;2023-05-10T15:07:46;2.25;;;0.50;;
9698;SDS011;10089;47.876;8.346;2023-05-10T15:10:12;0.43;;;0.40;;
9698;SDS011;10089;47.876;8.346;2023-05-10T15:12:39;1.58;;;0.93;;
9698;SDS011;10089;47.876;8.346;2023-05-10T15:15:05;0.45;;;0.45;;
9698;SDS011;10089;47.876;8.346;2023-05-10T15:17:33;0.85;;;0.68;;
9698;SDS011;10089;47.876;8.346;2023-05-10T15:19:59;0.80;;;0.80;;
9698;SDS011;10089;47.876;8.346;2023-05-10T15:22:27;0.40;;;0.40;;
9698;SDS011;10089;47.876;8.346;2023-05-10T15:24:54;2.42;;;0.50;;
9698;SDS011;10089;47.876;8.346;2023-05-10T15:27:19;3.40;;;0.63;;
9698;SDS011;10089;47.876;8.346;2023-05-10T15:29:45;1.02;;;0.50;;
9698;SDS011;10089;47.876;8.346;2023-05-10T15:32:23;1.10;;;0.75;;
9698;SDS011;10089;47.876;8.346;2023-05-10T15:34:49;1.70;;;0.70;;
9698;SDS011;10089;47.876;8.346;2023-05-10T15:39:58;0.43;;;0.43;;
9698;SDS011;10089;47.876;8.346;2023-05-10T15:42:28;2.38;;;0.70;;
9698;SDS011;10089;47.876;8.346;2023-05-10T15:44:57;0.75;;;0.68;;
9698;SDS011;10089;47.876;8.346;2023-05-10T15:47:23;0.50;;;0.50;;
9698;SDS011;10089;47.876;8.346;2023-05-10T15:49:49;0.60;;;0.60;;
9698;SDS011;10089;47.876;8.346;2023-05-10T15:52:15;1.10;;;0.60;;
9698;SDS011;10089;47.876;8.346;2023-05-10T15:54:40;0.60;;;0.60;;
9698;SDS011;10089;47.876;8.346;2023-05-10T15:57:06;2.25;;;0.65;;
9698;SDS011;10089;47.876;8.346;2023-05-10T15:59:32;0.60;;;0.60;;
9698;SDS011;10089;47.876;8.346;2023-05-10T16:01:58;2.42;;;1.40;;
9698;SDS011;10089;47.876;8.346;2023-05-10T16:04:23;1.63;;;0.70;;
9698;SDS011;10089;47.876;8.346;2023-05-10T16:06:49;0.98;;;0.68;;